createdAt,value
2022-09-04T00:00:09.955Z,72718.16
2022-09-04T00:00:51.315Z,72714.16
2022-09-04T00:01:31.469Z,72722.16
2022-09-04T00:02:16.396Z,72724.13
2022-09-04T00:03:15.281Z,72726.13
2022-09-04T00:03:51.352Z,72728.13
2022-09-04T00:04:34.815Z,72726.13
2022-09-04T00:05:13.931Z,72728.13
2022-09-04T00:05:56.992Z,72726.13
2022-09-04T00:06:34.393Z,72728.13
2022-09-04T00:07:15.448Z,72732.13
2022-09-04T00:07:59.309Z,72726.13
2022-09-04T00:08:46.268Z,72730.13
2022-09-04T00:09:23.109Z,72730.13
2022-09-04T00:10:09.788Z,72726.13
2022-09-04T00:10:50.878Z,72734.13
2022-09-04T00:11:38.594Z,72734.13
2022-09-04T00:12:13.597Z,72736.13
2022-09-04T00:12:50.089Z,72734.13
2022-09-04T00:13:24.403Z,72728.13
2022-09-04T00:14:02.388Z,72728.13
2022-09-04T00:14:40.774Z,72730.13
2022-09-04T00:15:15.578Z,72730.13
2022-09-04T00:15:54.135Z,72734.13
2022-09-04T00:16:29.387Z,72734.13
2022-09-04T00:17:06.140Z,72732.13
2022-09-04T00:17:44.762Z,72728.13
2022-09-04T00:18:21.227Z,72730.13
2022-09-04T00:19:02.695Z,72730.13
2022-09-04T00:19:40.445Z,72726.13
2022-09-04T00:20:25.878Z,72730.13
2022-09-04T00:21:06.163Z,72732.13
2022-09-04T00:21:43.906Z,72732.13
2022-09-04T00:22:25.881Z,72734.13
2022-09-04T00:23:04.869Z,72730.13
2022-09-04T00:23:42.325Z,72734.13
2022-09-04T00:24:18.548Z,72734.13
2022-09-04T00:24:53.899Z,72732.13
2022-09-04T00:25:34.043Z,72726.13
2022-09-04T00:26:17.494Z,72730.13
2022-09-04T00:26:58.201Z,72734.13
2022-09-04T00:27:35.953Z,72734.13
2022-09-04T00:28:15.218Z,72730.13
2022-09-04T00:28:49.809Z,72738.13
2022-09-04T00:29:27.273Z,72736.13
2022-09-04T00:30:08.405Z,72736.13
2022-09-04T00:30:47.072Z,72736.13
2022-09-04T00:31:26.097Z,72738.13
2022-09-04T00:32:05.258Z,72738.13
2022-09-04T00:32:41.385Z,72742.09
2022-09-04T00:33:19.739Z,72742.09
2022-09-04T00:34:03.124Z,72742.09
2022-09-04T00:34:51.068Z,72746.09
2022-09-04T00:35:31.607Z,72740.09
2022-09-04T00:36:04.450Z,72746.09
2022-09-04T00:36:40.381Z,72742.09
2022-09-04T00:37:21.342Z,72742.09
2022-09-04T00:37:59.160Z,72740.09
2022-09-04T00:38:43.449Z,72740.09
2022-09-04T00:39:18.216Z,72742.09
2022-09-04T00:39:55.650Z,72744.09
2022-09-04T00:40:33.537Z,72744.09
2022-09-04T00:41:17.106Z,72742.09
2022-09-04T00:41:58.933Z,72744.09
2022-09-04T00:42:50.260Z,72746.09
2022-09-04T00:43:37.397Z,72746.09
2022-09-04T00:44:30.164Z,72746.09
2022-09-04T00:45:19.410Z,72746.09
2022-09-04T00:46:02.594Z,72746.09
2022-09-04T00:46:54.878Z,72742.09
2022-09-04T00:47:48.783Z,72748.09
2022-09-04T00:48:37.573Z,72746.09
2022-09-04T00:49:33.149Z,72742.09
2022-09-04T00:50:31.422Z,72738.13
2022-09-04T00:51:16.103Z,72742.09
2022-09-04T00:51:54.661Z,72740.09
2022-09-04T00:52:47.157Z,72740.09
2022-09-04T00:53:30.604Z,72742.09
2022-09-04T00:54:21.013Z,72746.09
2022-09-04T00:55:02.749Z,72742.09
2022-09-04T00:55:59.145Z,72746.09
2022-09-04T00:56:55.948Z,72746.09
2022-09-04T00:57:52.058Z,72746.09
2022-09-04T00:58:39.443Z,72744.09
2022-09-04T00:59:16.215Z,72750.09
2022-09-04T01:00:11.125Z,72752.09
2022-09-04T01:00:44.703Z,72752.09
2022-09-04T01:01:22.132Z,72754.09
2022-09-04T01:02:00.139Z,72754.09
2022-09-04T01:02:42.733Z,72758.06
2022-09-04T01:03:40.929Z,72754.09
2022-09-04T01:04:31.920Z,72750.09
2022-09-04T01:05:10.022Z,72754.09
2022-09-04T01:06:12.917Z,72760.06
2022-09-04T01:06:54.453Z,72754.09
2022-09-04T01:07:47.018Z,72750.09
2022-09-04T01:08:28.020Z,72758.06
2022-09-04T01:09:32.210Z,72758.06
2022-09-04T01:10:12.993Z,72756.06
2022-09-04T01:10:51.755Z,72758.06
2022-09-04T01:11:34.941Z,72750.09
2022-09-04T01:12:17.794Z,72750.09
2022-09-04T01:12:56.353Z,72750.09
2022-09-04T01:13:36.326Z,72758.06
2022-09-04T01:14:15.170Z,72756.06
2022-09-04T01:14:58.657Z,72752.09
2022-09-04T01:15:36.901Z,72752.09
2022-09-04T01:16:14.391Z,72754.09
2022-09-04T01:16:51.351Z,72756.06
2022-09-04T01:17:27.518Z,72750.09
2022-09-04T01:18:06.674Z,72756.06
2022-09-04T01:18:48.284Z,72756.06
2022-09-04T01:19:44.844Z,72756.06
2022-09-04T01:20:22.284Z,72758.06
2022-09-04T01:21:16.926Z,72764.06
2022-09-04T01:22:04.712Z,72762.06
2022-09-04T01:22:55.885Z,72766.06
2022-09-04T01:23:45.533Z,72766.06
2022-09-04T01:24:42.566Z,72762.06
2022-09-04T01:25:30.739Z,72764.06
2022-09-04T01:26:11.928Z,72764.06
2022-09-04T01:26:48.102Z,72762.06
2022-09-04T01:27:24.736Z,72764.06
2022-09-04T01:28:03.573Z,72766.06
2022-09-04T01:28:42.252Z,72766.06
2022-09-04T01:29:22.725Z,72762.06
2022-09-04T01:30:04.654Z,72764.06
2022-09-04T01:30:43.810Z,72758.06
2022-09-04T01:31:24.998Z,72762.06
2022-09-04T01:32:08.084Z,72758.06
2022-09-04T01:32:46.453Z,72758.06
2022-09-04T01:33:27.523Z,72762.06
2022-09-04T01:34:10.884Z,72758.06
2022-09-04T01:34:51.525Z,72758.06
2022-09-04T01:35:33.757Z,72762.06
2022-09-04T01:36:11.429Z,72760.06
2022-09-04T01:36:48.142Z,72758.06
2022-09-04T01:37:39.890Z,72762.06
2022-09-04T01:38:16.726Z,72758.06
2022-09-04T01:38:53.694Z,72764.06
2022-09-04T01:39:30.174Z,72762.06
2022-09-04T01:40:23.058Z,72756.06
2022-09-04T01:41:18.564Z,72758.06
2022-09-04T01:41:54.530Z,72762.06
2022-09-04T01:42:32.769Z,72762.06
2022-09-04T01:43:13.780Z,72756.06
2022-09-04T01:43:46.071Z,72762.06
2022-09-04T01:44:18.385Z,72762.06
2022-09-04T01:44:50.713Z,72766.06
2022-09-04T01:45:43.191Z,72766.06
2022-09-04T01:46:39.511Z,72766.06
2022-09-04T01:47:19.128Z,72766.06
2022-09-04T01:47:52.406Z,72768.06
2022-09-04T01:48:32.510Z,72766.06
2022-09-04T01:49:11.598Z,72768.06
2022-09-04T01:49:48.489Z,72768.06
2022-09-04T01:50:26.705Z,72766.06
2022-09-04T01:51:02.512Z,72774.03
2022-09-04T01:51:42.735Z,72770.06
2022-09-04T01:52:36.850Z,72766.06
2022-09-04T01:53:16.303Z,72766.06
2022-09-04T01:54:00.331Z,72770.06
2022-09-04T01:54:41.625Z,72766.06
2022-09-04T01:55:24.191Z,72766.06
2022-09-04T01:56:00.326Z,72770.06
2022-09-04T01:56:39.894Z,72766.06
2022-09-04T01:57:23.138Z,72762.06
2022-09-04T01:58:01.807Z,72762.06
2022-09-04T01:58:41.603Z,72766.06
2022-09-04T01:59:22.429Z,72762.06
2022-09-04T02:00:07.051Z,72762.06
2022-09-04T02:00:50.355Z,72762.06
2022-09-04T02:01:32.690Z,72766.06
2022-09-04T02:02:09.724Z,72762.06
2022-09-04T02:02:55.304Z,72764.06
2022-09-04T02:03:33.166Z,72768.06
2022-09-04T02:04:12.682Z,72764.06
2022-09-04T02:04:53.066Z,72766.06
2022-09-04T02:05:31.832Z,72764.06
2022-09-04T02:06:13.629Z,72766.06
2022-09-04T02:06:50.522Z,72768.06
2022-09-04T02:07:29.246Z,72766.06
2022-09-04T02:08:14.213Z,72766.06
2022-09-04T02:09:08.449Z,72772.03
2022-09-04T02:09:49.466Z,72770.06
2022-09-04T02:10:31.774Z,72770.06
2022-09-04T02:11:09.417Z,72770.06
2022-09-04T02:11:55.384Z,72772.03
2022-09-04T02:12:36.084Z,72766.06
2022-09-04T02:13:15.341Z,72770.06
2022-09-04T02:14:08.948Z,72778.03
2022-09-04T02:14:45.814Z,72768.06
2022-09-04T02:15:30.877Z,72774.03
2022-09-04T02:16:14.733Z,72774.03
2022-09-04T02:17:00.954Z,72770.06
2022-09-04T02:17:41.115Z,72770.06
2022-09-04T02:18:20.135Z,72770.06
2022-09-04T02:19:03.666Z,72770.06
2022-09-04T02:19:42.445Z,72770.06
2022-09-04T02:20:22.745Z,72772.03
2022-09-04T02:21:03.059Z,72770.06
2022-09-04T02:21:37.998Z,72766.06
2022-09-04T02:22:21.125Z,72770.06
2022-09-04T02:23:06.770Z,72772.03
2022-09-04T02:23:42.148Z,72774.03
2022-09-04T02:24:22.263Z,72770.06
2022-09-04T02:25:03.852Z,72772.03
2022-09-04T02:25:40.823Z,72772.03
2022-09-04T02:26:19.455Z,72768.06
2022-09-04T02:27:00.849Z,72774.03
2022-09-04T02:27:42.069Z,72774.03
2022-09-04T02:28:21.663Z,72770.06
2022-09-04T02:29:00.265Z,72772.03
2022-09-04T02:29:36.229Z,72774.03
2022-09-04T02:30:11.924Z,72770.06
2022-09-04T02:30:54.182Z,72770.06
2022-09-04T02:31:33.358Z,72774.03
2022-09-04T02:32:12.016Z,72774.03
2022-09-04T02:32:52.600Z,72778.03
2022-09-04T02:33:31.462Z,72778.03
2022-09-04T02:34:07.934Z,72778.03
2022-09-04T02:34:47.290Z,72778.03
2022-09-04T02:35:22.911Z,72782.03
2022-09-04T02:35:58.113Z,72782.03
2022-09-04T02:36:37.885Z,72778.03
2022-09-04T02:37:15.066Z,72778.03
2022-09-04T02:37:58.788Z,72778.03
2022-09-04T02:38:38.913Z,72780.03
2022-09-04T02:39:21.777Z,72780.03
2022-09-04T02:40:01.112Z,72778.03
2022-09-04T02:40:44.709Z,72780.03
2022-09-04T02:41:22.146Z,72778.03
2022-09-04T02:42:08.871Z,72774.03
2022-09-04T02:42:48.471Z,72778.03
2022-09-04T02:43:28.366Z,72774.03
2022-09-04T02:44:13.726Z,72780.03
2022-09-04T02:44:50.152Z,72782.03
2022-09-04T02:45:28.986Z,72778.03
2022-09-04T02:46:07.458Z,72776.03
2022-09-04T02:46:49.867Z,72782.03
2022-09-04T02:47:27.269Z,72778.03
2022-09-04T02:48:09.359Z,72778.03
2022-09-04T02:48:52.261Z,72778.03
2022-09-04T02:49:31.373Z,72778.03
2022-09-04T02:50:14.311Z,72778.03
2022-09-04T02:50:57.378Z,72778.03
2022-09-04T02:51:43.713Z,72782.03
2022-09-04T02:52:33.694Z,72778.03
2022-09-04T02:53:18.562Z,72782.03
2022-09-04T02:53:57.238Z,72784.03
2022-09-04T02:54:45.929Z,72782.03
2022-09-04T02:55:30.570Z,72778.03
2022-09-04T02:56:24.177Z,72780.03
2022-09-04T02:57:09.428Z,72780.03
2022-09-04T02:57:56.729Z,72782.03
2022-09-04T02:58:39.824Z,72780.03
2022-09-04T02:59:35.079Z,72782.03
2022-09-04T03:00:12.984Z,72786.00
2022-09-04T03:00:55.329Z,72784.03
2022-09-04T03:01:35.982Z,72786.00
2022-09-04T03:02:15.991Z,72786.00
2022-09-04T03:02:56.004Z,72790.00
2022-09-04T03:03:32.670Z,72788.00
2022-09-04T03:04:10.734Z,72786.00
2022-09-04T03:04:50.978Z,72784.03
2022-09-04T03:05:25.301Z,72786.00
2022-09-04T03:06:02.689Z,72786.00
2022-09-04T03:06:53.730Z,72790.00
2022-09-04T03:07:31.271Z,72786.00
2022-09-04T03:08:13.753Z,72786.00
2022-09-04T03:08:57.282Z,72786.00
2022-09-04T03:09:33.342Z,72784.03
2022-09-04T03:10:10.733Z,72786.00
2022-09-04T03:10:48.894Z,72786.00
2022-09-04T03:11:24.733Z,72786.00
2022-09-04T03:12:03.956Z,72786.00
2022-09-04T03:12:48.108Z,72786.00
2022-09-04T03:13:25.766Z,72782.03
2022-09-04T03:14:06.216Z,72786.00
2022-09-04T03:14:49.690Z,72786.00
2022-09-04T03:15:27.554Z,72790.00
2022-09-04T03:16:08.638Z,72790.00
2022-09-04T03:16:44.049Z,72786.00
2022-09-04T03:17:20.670Z,72786.00
2022-09-04T03:18:02.862Z,72782.03
2022-09-04T03:18:55.628Z,72790.00
2022-09-04T03:19:35.095Z,72784.03
2022-09-04T03:20:12.145Z,72788.00
2022-09-04T03:20:49.705Z,72790.00
2022-09-04T03:21:28.305Z,72790.00
2022-09-04T03:22:05.561Z,72788.00
2022-09-04T03:22:55.452Z,72792.00
2022-09-04T03:23:39.817Z,72790.00
2022-09-04T03:24:16.454Z,72790.00
2022-09-04T03:25:03.770Z,72794.00
2022-09-04T03:26:02.290Z,72794.00
2022-09-04T03:26:36.642Z,72794.00
2022-09-04T03:27:16.688Z,72790.00
2022-09-04T03:27:49.030Z,72800.00
2022-09-04T03:28:28.225Z,72796.00
2022-09-04T03:29:10.252Z,72794.00
2022-09-04T03:29:54.259Z,72794.00
2022-09-04T03:30:30.736Z,72794.00
2022-09-04T03:31:24.814Z,72794.00
2022-09-04T03:32:15.887Z,72794.00
2022-09-04T03:32:58.563Z,72792.00
2022-09-04T03:33:41.710Z,72794.00
2022-09-04T03:34:28.868Z,72794.00
2022-09-04T03:35:06.894Z,72794.00
2022-09-04T03:35:47.538Z,72796.00
2022-09-04T03:36:29.777Z,72794.00
2022-09-04T03:37:21.330Z,72794.00
2022-09-04T03:38:03.673Z,72794.00
2022-09-04T03:38:45.645Z,72794.00
2022-09-04T03:39:26.409Z,72794.00
2022-09-04T03:40:11.050Z,72788.00
2022-09-04T03:40:46.385Z,72790.00
2022-09-04T03:41:25.366Z,72794.00
2022-09-04T03:42:05.970Z,72794.00
2022-09-04T03:42:58.972Z,72796.00
2022-09-04T03:43:52.734Z,72794.00
2022-09-04T03:44:31.451Z,72794.00
2022-09-04T03:45:15.602Z,72796.00
2022-09-04T03:45:56.433Z,72796.00
2022-09-04T03:46:39.125Z,72792.00
2022-09-04T03:47:23.600Z,72794.00
2022-09-04T03:48:10.715Z,72798.00
2022-09-04T03:49:03.046Z,72798.00
2022-09-04T03:49:46.278Z,72798.00
2022-09-04T03:50:25.384Z,72796.00
2022-09-04T03:51:10.707Z,72798.00
2022-09-04T03:51:54.256Z,72801.97
2022-09-04T03:52:33.122Z,72794.00
2022-09-04T03:53:14.780Z,72798.00
2022-09-04T03:53:52.162Z,72800.00
2022-09-04T03:54:36.023Z,72798.00
2022-09-04T03:55:34.862Z,72801.97
2022-09-04T03:56:20.994Z,72801.97
2022-09-04T03:57:12.508Z,72800.00
2022-09-04T03:58:06.133Z,72803.97
2022-09-04T03:58:46.217Z,72801.97
2022-09-04T03:59:37.876Z,72798.00
2022-09-04T04:00:12.885Z,72803.97
2022-09-04T04:00:50.257Z,72798.00
2022-09-04T04:01:29.402Z,72801.97
2022-09-04T04:02:06.675Z,72796.00
2022-09-04T04:03:00.440Z,72805.97
2022-09-04T04:04:01.101Z,72801.97
2022-09-04T04:05:03.917Z,72807.97
2022-09-04T04:06:02.881Z,72809.97
2022-09-04T04:06:44.174Z,72811.97
2022-09-04T04:07:27.197Z,72809.97
2022-09-04T04:08:10.338Z,72809.97
2022-09-04T04:09:11.985Z,72809.97
2022-09-04T04:09:56.704Z,72813.97
2022-09-04T04:10:33.889Z,72813.97
2022-09-04T04:11:24.433Z,72815.97
2022-09-04T04:12:19.195Z,72813.97
2022-09-04T04:13:19.493Z,72809.97
2022-09-04T04:14:07.733Z,72821.94
2022-09-04T04:15:03.558Z,72817.94
2022-09-04T04:15:45.586Z,72817.94
2022-09-04T04:16:38.722Z,72817.94
2022-09-04T04:17:31.025Z,72815.97
2022-09-04T04:18:36.424Z,72813.97
2022-09-04T04:19:38.940Z,72813.97
2022-09-04T04:20:22.172Z,72817.94
2022-09-04T04:21:01.800Z,72811.97
2022-09-04T04:21:56.036Z,72813.97
2022-09-04T04:22:49.011Z,72817.94
2022-09-04T04:23:41.886Z,72815.97
2022-09-04T04:24:29.083Z,72821.94
2022-09-04T04:25:52.410Z,72817.94
2022-09-04T04:26:42.435Z,72821.94
2022-09-04T04:27:32.494Z,72817.94
2022-09-04T04:28:20.257Z,72813.97
2022-09-04T04:29:17.062Z,72821.94
2022-09-04T04:29:59.154Z,72817.94
2022-09-04T04:30:38.861Z,72817.94
2022-09-04T04:31:21.874Z,72817.94
2022-09-04T04:32:13.902Z,72819.94
2022-09-04T04:33:02.741Z,72821.94
2022-09-04T04:33:47.294Z,72821.94
2022-09-04T04:34:26.786Z,72823.94
2022-09-04T04:35:11.634Z,72821.94
2022-09-04T04:35:51.801Z,72821.94
2022-09-04T04:36:30.302Z,72825.94
2022-09-04T04:37:07.490Z,72829.94
2022-09-04T04:37:53.572Z,72829.94
2022-09-04T04:38:36.775Z,72831.94
2022-09-04T04:39:17.654Z,72835.91
2022-09-04T04:39:55.208Z,72825.94
2022-09-04T04:40:39.548Z,72827.94
2022-09-04T04:41:30.915Z,72837.91
2022-09-04T04:42:15.451Z,72837.91
2022-09-04T04:42:58.162Z,72827.94
2022-09-04T04:43:45.374Z,72833.91
2022-09-04T04:44:18.892Z,72833.91
2022-09-04T04:45:21.326Z,72833.91
2022-09-04T04:46:00.038Z,72833.91
2022-09-04T04:46:46.416Z,72833.91
2022-09-04T04:47:27.758Z,72833.91
2022-09-04T04:48:32.882Z,72833.91
2022-09-04T04:49:37.297Z,72833.91
2022-09-04T04:50:16.824Z,72833.91
2022-09-04T04:51:08.929Z,72833.91
2022-09-04T04:52:16.038Z,72841.91
2022-09-04T04:52:59.849Z,72837.91
2022-09-04T04:53:43.836Z,72837.91
2022-09-04T04:54:26.896Z,72837.91
2022-09-04T04:55:06.515Z,72837.91
2022-09-04T04:55:49.406Z,72837.91
2022-09-04T04:56:23.701Z,72841.91
2022-09-04T04:57:00.418Z,72843.91
2022-09-04T04:57:43.292Z,72843.91
2022-09-04T04:58:28.426Z,72849.88
2022-09-04T04:59:20.794Z,72841.91
2022-09-04T05:00:06.506Z,72849.88
2022-09-04T05:00:41.382Z,72849.88
2022-09-04T05:01:28.366Z,72845.91
2022-09-04T05:02:07.942Z,72851.88
2022-09-04T05:02:51.789Z,72849.88
2022-09-04T05:03:32.536Z,72853.88
2022-09-04T05:04:11.782Z,72853.88
2022-09-04T05:04:49.517Z,72857.88
2022-09-04T05:05:43.749Z,72861.88
2022-09-04T05:06:21.334Z,72861.88
2022-09-04T05:07:00.108Z,72857.88
2022-09-04T05:07:38.313Z,72857.88
2022-09-04T05:08:18.718Z,72859.88
2022-09-04T05:08:58.611Z,72857.88
2022-09-04T05:09:36.958Z,72859.88
2022-09-04T05:10:17.840Z,72857.88
2022-09-04T05:10:56.921Z,72861.88
2022-09-04T05:11:35.595Z,72861.88
2022-09-04T05:12:14.016Z,72869.84
2022-09-04T05:13:00.886Z,72857.88
2022-09-04T05:13:40.114Z,72863.84
2022-09-04T05:14:27.950Z,72865.84
2022-09-04T05:15:04.156Z,72867.84
2022-09-04T05:15:58.255Z,72861.88
2022-09-04T05:16:43.281Z,72867.84
2022-09-04T05:17:23.714Z,72867.84
2022-09-04T05:17:58.978Z,72867.84
2022-09-04T05:18:36.654Z,72871.84
2022-09-04T05:19:18.747Z,72869.84
2022-09-04T05:20:01.724Z,72873.84
2022-09-04T05:20:39.901Z,72873.84
2022-09-04T05:21:22.728Z,72871.84
2022-09-04T05:22:03.414Z,72877.84
2022-09-04T05:22:38.789Z,72877.84
2022-09-04T05:23:20.262Z,72877.84
2022-09-04T05:24:00.614Z,72877.84
2022-09-04T05:24:37.277Z,72877.84
2022-09-04T05:25:17.422Z,72877.84
2022-09-04T05:25:54.910Z,72877.84
2022-09-04T05:26:35.945Z,72881.81
2022-09-04T05:27:13.515Z,72881.81
2022-09-04T05:27:56.906Z,72881.81
2022-09-04T05:28:36.420Z,72881.81
2022-09-04T05:29:14.033Z,72881.81
2022-09-04T05:29:55.510Z,72885.81
2022-09-04T05:30:39.284Z,72885.81
2022-09-04T05:31:20.976Z,72881.81
2022-09-04T05:32:00.025Z,72881.81
2022-09-04T05:32:35.867Z,72887.81
2022-09-04T05:33:14.678Z,72881.81
2022-09-04T05:33:58.049Z,72887.81
2022-09-04T05:34:49.218Z,72879.81
2022-09-04T05:35:35.310Z,72879.81
2022-09-04T05:36:13.526Z,72885.81
2022-09-04T05:36:54.181Z,72885.81
2022-09-04T05:37:31.803Z,72885.81
2022-09-04T05:38:09.330Z,72885.81
2022-09-04T05:38:50.736Z,72885.81
2022-09-04T05:39:28.434Z,72885.81
2022-09-04T05:40:04.218Z,72883.81
2022-09-04T05:40:55.505Z,72885.81
2022-09-04T05:41:38.546Z,72889.81
2022-09-04T05:42:38.535Z,72893.81
2022-09-04T05:43:23.145Z,72891.81
2022-09-04T05:44:10.601Z,72893.81
2022-09-04T05:44:57.833Z,72889.81
2022-09-04T05:45:40.106Z,72895.78
2022-09-04T05:46:21.137Z,72897.78
2022-09-04T05:47:05.088Z,72893.81
2022-09-04T05:47:46.766Z,72897.78
2022-09-04T05:48:23.808Z,72905.78
2022-09-04T05:49:01.261Z,72901.78
2022-09-04T05:50:01.233Z,72901.78
2022-09-04T05:50:52.481Z,72901.78
2022-09-04T05:51:59.914Z,72901.78
2022-09-04T05:52:48.509Z,72903.78
2022-09-04T05:53:42.810Z,72905.78
2022-09-04T05:54:53.368Z,72901.78
2022-09-04T05:56:21.398Z,72901.78
2022-09-04T05:57:06.287Z,72901.78
2022-09-04T05:57:47.765Z,72905.78
2022-09-04T05:58:36.569Z,72899.78
2022-09-04T05:59:27.892Z,72905.78
2022-09-04T06:00:11.955Z,72903.78
2022-09-04T06:00:53.666Z,72901.78
2022-09-04T06:01:52.243Z,72905.78
2022-09-04T06:03:07.656Z,72909.78
2022-09-04T06:03:54.866Z,72907.78
2022-09-04T06:04:47.442Z,72901.78
2022-09-04T06:05:28.704Z,72905.78
2022-09-04T06:06:17.310Z,72907.78
2022-09-04T06:06:57.346Z,72905.78
2022-09-04T06:07:32.402Z,72907.78
2022-09-04T06:08:19.055Z,72907.78
2022-09-04T06:09:04.458Z,72909.78
2022-09-04T06:09:55.136Z,72907.78
2022-09-04T06:10:33.474Z,72915.75
2022-09-04T06:11:28.050Z,72913.75
2022-09-04T06:12:16.183Z,72911.75
2022-09-04T06:13:06.725Z,72917.75
2022-09-04T06:14:03.354Z,72915.75
2022-09-04T06:14:45.634Z,72921.75
2022-09-04T06:15:36.958Z,72921.75
2022-09-04T06:16:21.339Z,72921.75
2022-09-04T06:17:10.661Z,72917.75
2022-09-04T06:18:11.899Z,72919.75
2022-09-04T06:18:59.865Z,72921.75
2022-09-04T06:19:41.498Z,72919.75
2022-09-04T06:20:39.180Z,72927.72
2022-09-04T06:21:34.590Z,72925.75
2022-09-04T06:22:27.884Z,72923.75
2022-09-04T06:23:11.690Z,72925.75
2022-09-04T06:24:10.282Z,72925.75
2022-09-04T06:25:01.663Z,72929.72
2022-09-04T06:26:09.334Z,72929.72
2022-09-04T06:26:58.286Z,72929.72
2022-09-04T06:27:58.119Z,72929.72
2022-09-04T06:29:05.573Z,72927.72
2022-09-04T06:29:54.358Z,72925.75
2022-09-04T06:30:35.390Z,72927.72
2022-09-04T06:31:23.757Z,72925.75
2022-09-04T06:32:23.910Z,72931.72
2022-09-04T06:33:17.478Z,72927.72
2022-09-04T06:33:59.710Z,72933.72
2022-09-04T06:34:53.978Z,72925.75
2022-09-04T06:35:36.368Z,72929.72
2022-09-04T06:36:33.998Z,72929.72
2022-09-04T06:37:13.326Z,72935.72
2022-09-04T06:37:56.569Z,72933.72
2022-09-04T06:38:51.534Z,72933.72
2022-09-04T06:39:41.715Z,72933.72
2022-09-04T06:40:28.310Z,72937.72
2022-09-04T06:41:10.942Z,72937.72
2022-09-04T06:41:56.826Z,72941.72
2022-09-04T06:42:53.192Z,72945.69
2022-09-04T06:43:33.197Z,72941.72
2022-09-04T06:44:15.342Z,72937.72
2022-09-04T06:44:57.496Z,72941.72
2022-09-04T06:45:44.168Z,72943.69
2022-09-04T06:46:24.279Z,72933.72
2022-09-04T06:47:08.203Z,72941.72
2022-09-04T06:47:58.622Z,72941.72
2022-09-04T06:48:47.784Z,72941.72
2022-09-04T06:49:24.648Z,72941.72
2022-09-04T06:50:08.502Z,72941.72
2022-09-04T06:50:48.578Z,72941.72
2022-09-04T06:51:33.294Z,72941.72
2022-09-04T06:52:14.488Z,72937.72
2022-09-04T06:53:01.026Z,72935.72
2022-09-04T06:53:42.917Z,72937.72
2022-09-04T06:54:19.983Z,72945.69
2022-09-04T06:54:59.364Z,72941.72
2022-09-04T06:55:44.622Z,72945.69
2022-09-04T06:56:27.338Z,72949.69
2022-09-04T06:57:17.165Z,72949.69
2022-09-04T06:58:11.118Z,72945.69
2022-09-04T06:59:10.129Z,72949.69
2022-09-04T06:59:51.681Z,72953.69
2022-09-04T07:00:26.582Z,72949.69
2022-09-04T07:01:04.178Z,72949.69
2022-09-04T07:01:43.462Z,72949.69
2022-09-04T07:02:28.982Z,72949.69
2022-09-04T07:03:25.925Z,72951.69
2022-09-04T07:04:09.145Z,72953.69
2022-09-04T07:04:50.782Z,72953.69
2022-09-04T07:05:28.586Z,72949.69
2022-09-04T07:06:08.109Z,72953.69
2022-09-04T07:06:50.777Z,72957.69
2022-09-04T07:07:28.882Z,72957.69
2022-09-04T07:08:10.726Z,72959.66
2022-09-04T07:08:57.616Z,72957.69
2022-09-04T07:09:36.224Z,72961.66
2022-09-04T07:10:11.191Z,72957.69
2022-09-04T07:10:47.839Z,72961.66
2022-09-04T07:11:30.789Z,72961.66
2022-09-04T07:12:28.270Z,72959.66
2022-09-04T07:13:28.182Z,72963.66
2022-09-04T07:14:17.607Z,72961.66
2022-09-04T07:15:15.022Z,72963.66
2022-09-04T07:16:04.643Z,72965.66
2022-09-04T07:16:49.881Z,72961.66
2022-09-04T07:17:28.386Z,72965.66
2022-09-04T07:18:10.463Z,72957.69
2022-09-04T07:19:18.817Z,72961.66
2022-09-04T07:20:09.730Z,72957.69
2022-09-04T07:20:49.205Z,72957.69
2022-09-04T07:21:30.395Z,72961.66
2022-09-04T07:22:18.024Z,72959.66
2022-09-04T07:23:02.817Z,72963.66
2022-09-04T07:23:41.937Z,72965.66
2022-09-04T07:24:49.800Z,72967.66
2022-09-04T07:25:26.489Z,72965.66
2022-09-04T07:26:10.168Z,72971.66
2022-09-04T07:26:49.559Z,72969.66
2022-09-04T07:27:34.981Z,72973.63
2022-09-04T07:28:16.417Z,72969.66
2022-09-04T07:29:08.536Z,72973.63
2022-09-04T07:29:43.870Z,72971.66
2022-09-04T07:30:17.400Z,72971.66
2022-09-04T07:30:55.567Z,72973.63
2022-09-04T07:31:37.035Z,72973.63
2022-09-04T07:32:20.254Z,72973.63
2022-09-04T07:32:56.445Z,72977.63
2022-09-04T07:33:34.981Z,72973.63
2022-09-04T07:34:15.148Z,72979.63
2022-09-04T07:34:52.824Z,72973.63
2022-09-04T07:35:30.581Z,72975.63
2022-09-04T07:36:11.066Z,72975.63
2022-09-04T07:36:48.964Z,72979.63
2022-09-04T07:37:27.974Z,72975.63
2022-09-04T07:38:09.732Z,72973.63
2022-09-04T07:38:50.858Z,72977.63
2022-09-04T07:39:32.769Z,72969.66
2022-09-04T07:40:10.071Z,72971.66
2022-09-04T07:40:45.157Z,72971.66
2022-09-04T07:41:26.346Z,72977.63
2022-09-04T07:42:02.058Z,72975.63
2022-09-04T07:42:40.210Z,72977.63
2022-09-04T07:43:19.745Z,72977.63
2022-09-04T07:43:55.902Z,72977.63
2022-09-04T07:44:36.846Z,72977.63
2022-09-04T07:45:22.060Z,72977.63
2022-09-04T07:46:03.476Z,72975.63
2022-09-04T07:46:44.624Z,72973.63
2022-09-04T07:47:28.442Z,72971.66
2022-09-04T07:48:11.385Z,72977.63
2022-09-04T07:48:47.188Z,72969.66
2022-09-04T07:49:24.399Z,72975.63
2022-09-04T07:50:05.624Z,72977.63
2022-09-04T07:50:45.859Z,72977.63
2022-09-04T07:51:21.679Z,72977.63
2022-09-04T07:52:00.336Z,72977.63
2022-09-04T07:52:55.207Z,72981.63
2022-09-04T07:53:50.754Z,72975.63
2022-09-04T07:54:40.842Z,72977.63
2022-09-04T07:55:21.394Z,72975.63
2022-09-04T07:55:56.836Z,72973.63
2022-09-04T07:56:38.882Z,72977.63
2022-09-04T07:57:27.674Z,72977.63
2022-09-04T07:58:31.711Z,72977.63
2022-09-04T07:59:33.894Z,72981.63
2022-09-04T08:00:08.668Z,72977.63
2022-09-04T08:01:02.831Z,72985.63
2022-09-04T08:01:52.861Z,72983.63
2022-09-04T08:02:41.882Z,72979.63
2022-09-04T08:03:25.085Z,72977.63
2022-09-04T08:04:24.609Z,72983.63
2022-09-04T08:05:21.331Z,72985.63
2022-09-04T08:06:00.281Z,72985.63
2022-09-04T08:06:37.930Z,72985.63
2022-09-04T08:07:15.679Z,72981.63
2022-09-04T08:08:18.898Z,72989.59
2022-09-04T08:09:12.495Z,72985.63
2022-09-04T08:09:57.135Z,72985.63
2022-09-04T08:10:31.609Z,72983.63
2022-09-04T08:11:12.321Z,72989.59
2022-09-04T08:12:28.943Z,72989.59
2022-09-04T08:13:14.257Z,72985.63
2022-09-04T08:14:03.493Z,72985.63
2022-09-04T08:14:53.902Z,72991.59
2022-09-04T08:15:35.181Z,72989.59
2022-09-04T08:16:19.054Z,72993.59
2022-09-04T08:17:02.981Z,72993.59
2022-09-04T08:18:01.735Z,72993.59
2022-09-04T08:18:58.025Z,72995.59
2022-09-04T08:19:43.117Z,73001.59
2022-09-04T08:20:24.926Z,72997.59
2022-09-04T08:21:18.360Z,72997.59
2022-09-04T08:21:53.067Z,72993.59
2022-09-04T08:22:42.846Z,72997.59
2022-09-04T08:23:28.664Z,73001.59
2022-09-04T08:24:20.895Z,73003.59
2022-09-04T08:25:17.181Z,73001.59
2022-09-04T08:25:58.292Z,73003.59
2022-09-04T08:26:41.688Z,72997.59
2022-09-04T08:27:24.690Z,73005.56
2022-09-04T08:28:12.403Z,73003.59
2022-09-04T08:28:58.681Z,73005.56
2022-09-04T08:29:40.233Z,73005.56
2022-09-04T08:30:18.458Z,72997.59
2022-09-04T08:30:55.376Z,73001.59
2022-09-04T08:31:33.982Z,72993.59
2022-09-04T08:32:16.582Z,72997.59
2022-09-04T08:33:35.877Z,72997.59
2022-09-04T08:34:37.954Z,72997.59
2022-09-04T08:35:20.959Z,73001.59
2022-09-04T08:35:57.787Z,73001.59
2022-09-04T08:36:37.736Z,73001.59